Time;durP1;ratioP1;P1;durP2;ratioP2;P2;SDS_P1;SDS_P2;PMS_P1;PMS_P2;Temp;Humidity;BMP_temperature;BMP_pressure;BME280_temperature;BME280_humidity;BME280_pressure;Samples;Min_cycle;Max_cycle;Signal;HPM_P1;HPM_P2
2022/11/14 00:00:53;;;;;;;23.02;14.70;;;7.20;81.60;;;;;;5023539;28;20220;-71
2022/11/14 00:03:39;;;;;;;25.55;15.77;;;7.20;81.70;;;;;;5020802;28;20209;-71
2022/11/14 00:06:25;;;;;;;24.45;15.38;;;7.20;81.70;;;;;;5021258;28;20229;-71
2022/11/14 00:09:12;;;;;;;23.15;13.93;;;7.20;81.70;;;;;;5022035;28;20208;-71
2022/11/14 00:11:58;;;;;;;29.00;16.02;;;7.20;81.60;;;;;;5023046;28;20296;-71
2022/11/14 00:14:45;;;;;;;23.73;15.85;;;7.10;81.60;;;;;;5021945;28;20794;-71
2022/11/14 00:17:32;;;;;;;22.83;14.90;;;7.10;81.70;;;;;;5020972;28;20240;-71
2022/11/14 00:20:19;;;;;;;26.20;15.95;;;7.10;81.60;;;;;;5022775;28;20221;-72
2022/11/14 00:23:05;;;;;;;21.13;14.35;;;7.10;81.50;;;;;;5017953;28;20284;-71
2022/11/14 00:25:52;;;;;;;21.88;13.60;;;7.00;81.40;;;;;;5022006;28;20750;-71
2022/11/14 00:28:38;;;;;;;23.98;15.88;;;6.90;81.50;;;;;;5020861;28;20228;-71
2022/11/14 00:31:24;;;;;;;25.85;16.85;;;6.90;81.70;;;;;;5021576;28;20236;-71
2022/11/14 00:34:12;;;;;;;25.65;16.15;;;7.00;81.80;;;;;;5024577;28;20240;-71
2022/11/14 00:36:59;;;;;;;23.42;15.15;;;7.00;81.90;;;;;;5026254;28;20343;-71
2022/11/14 00:39:46;;;;;;;30.55;17.42;;;7.00;81.70;;;;;;5020195;28;20221;-71
2022/11/14 00:42:33;;;;;;;28.02;17.13;;;7.00;81.70;;;;;;5020904;28;20224;-71
2022/11/14 00:45:20;;;;;;;25.70;16.40;;;7.00;81.70;;;;;;5024701;28;20213;-72
2022/11/14 00:48:06;;;;;;;23.60;15.40;;;7.00;81.60;;;;;;5026154;28;20325;-71
2022/11/14 00:50:54;;;;;;;21.65;14.73;;;7.00;81.80;;;;;;5024163;28;20227;-71
2022/11/14 00:53:41;;;;;;;22.15;14.35;;;7.00;81.80;;;;;;5023997;28;20231;-71
2022/11/14 00:56:27;;;;;;;24.27;15.20;;;7.10;81.90;;;;;;5028518;28;20601;-71
2022/11/14 00:59:14;;;;;;;23.05;14.65;;;7.10;81.90;;;;;;5025361;28;20682;-71
2022/11/14 01:02:01;;;;;;;20.50;13.45;;;7.20;81.80;;;;;;5024934;28;20204;-71
2022/11/14 01:04:47;;;;;;;24.65;15.90;;;7.20;81.90;;;;;;5021798;28;20205;-71
2022/11/14 01:07:35;;;;;;;24.33;14.73;;;7.20;81.80;;;;;;5023497;28;20235;-71
2022/11/14 01:10:22;;;;;;;22.13;15.50;;;7.20;81.80;;;;;;5025721;28;20228;-71
2022/11/14 01:13:09;;;;;;;24.38;14.73;;;7.30;82.00;;;;;;5024159;28;20302;-71
2022/11/14 01:16:00;;;;;;;59.38;28.58;;;7.30;81.90;;;;;;5025730;28;20733;-71
2022/11/14 01:18:46;;;;;;;50.58;26.58;;;7.30;81.80;;;;;;5025388;28;20264;-71
2022/11/14 01:21:33;;;;;;;41.75;23.55;;;7.30;81.40;;;;;;5016216;28;20213;-71
2022/11/14 01:24:21;;;;;;;44.08;22.92;;;7.20;81.30;;;;;;5021847;28;20212;-71
2022/11/14 01:27:08;;;;;;;38.55;22.23;;;7.10;81.00;;;;;;5018279;28;20236;-71
2022/11/14 01:29:54;;;;;;;30.90;18.38;;;7.00;81.10;;;;;;5021839;28;20212;-71
2022/11/14 01:32:41;;;;;;;29.70;18.13;;;7.00;81.20;;;;;;5021612;28;20819;-71
2022/11/14 01:35:27;;;;;;;27.50;17.70;;;6.90;81.10;;;;;;5026567;28;20708;-71
2022/11/14 01:38:15;;;;;;;23.95;15.73;;;6.90;81.00;;;;;;5026222;28;20238;-70
2022/11/14 01:41:03;;;;;;;24.45;15.98;;;6.80;80.80;;;;;;5023278;28;20939;-70
2022/11/14 01:43:50;;;;;;;27.13;15.68;;;6.70;81.10;;;;;;5023823;28;20300;-71
2022/11/14 01:46:40;;;;;;;39.22;21.30;;;6.70;81.30;;;;;;5025090;28;20812;-72
2022/11/14 01:49:30;;;;;;;56.95;24.38;;;6.80;81.30;;;;;;5022112;28;20225;-72
2022/11/14 01:52:20;;;;;;;38.10;21.63;;;6.80;81.00;;;;;;5024065;28;20227;-72
2022/11/14 01:55:09;;;;;;;58.65;29.08;;;6.70;80.90;;;;;;5028917;28;20294;-71
2022/11/14 01:57:59;;;;;;;52.25;27.98;;;6.70;81.00;;;;;;5024593;28;20243;-71
2022/11/14 02:00:45;;;;;;;36.22;19.42;;;6.60;80.80;;;;;;5025935;28;20416;-72
2022/11/14 02:03:35;;;;;;;23.55;15.57;;;6.60;80.80;;;;;;5021928;28;20215;-72
2022/11/14 02:06:25;;;;;;;28.27;15.18;;;6.60;81.00;;;;;;5025070;28;20215;-70
2022/11/14 02:09:12;;;;;;;21.75;14.80;;;6.60;81.00;;;;;;5025837;28;20208;-72
2022/11/14 02:12:02;;;;;;;95.60;40.65;;;6.60;80.90;;;;;;5024486;28;20254;-71
2022/11/14 02:14:54;;;;;;;42.15;22.55;;;6.60;80.90;;;;;;5026015;28;20271;-72
2022/11/14 02:17:41;;;;;;;34.95;19.98;;;6.50;80.80;;;;;;5024783;28;20418;-72
2022/11/14 02:20:32;;;;;;;29.33;16.95;;;6.50;80.70;;;;;;5021115;28;20220;-72
2022/11/14 02:23:26;;;;;;;36.92;19.25;;;6.50;80.70;;;;;;5021128;28;21005;-72
2022/11/14 02:26:12;;;;;;;31.20;18.40;;;6.50;80.70;;;;;;5026169;28;20335;-71
2022/11/14 02:28:59;;;;;;;37.97;21.05;;;6.50;80.70;;;;;;5023882;28;20259;-72
2022/11/14 02:31:45;;;;;;;49.20;26.35;;;6.50;80.70;;;;;;5027099;28;20295;-72
2022/11/14 02:34:32;;;;;;;30.73;19.92;;;6.50;80.50;;;;;;5023261;28;20709;-71
2022/11/14 02:37:20;;;;;;;29.08;18.67;;;6.40;80.40;;;;;;5025161;28;20760;-72
2022/11/14 02:40:08;;;;;;;26.95;15.98;;;6.40;80.70;;;;;;5019193;28;20213;-72
2022/11/14 02:42:54;;;;;;;25.75;15.90;;;6.40;80.70;;;;;;5025254;28;20711;-71
2022/11/14 02:45:41;;;;;;;25.77;15.30;;;6.50;80.80;;;;;;5025624;28;20700;-69
2022/11/14 02:48:27;;;;;;;38.53;20.23;;;6.50;80.80;;;;;;5029708;28;20236;-72
2022/11/14 02:51:14;;;;;;;40.50;22.60;;;6.50;80.70;;;;;;5022799;28;20208;-70
2022/11/14 02:54:02;;;;;;;32.58;19.13;;;6.50;80.40;;;;;;5019912;28;20224;-71
2022/11/14 02:56:49;;;;;;;24.65;16.20;;;6.40;80.40;;;;;;5024518;28;20240;-71
2022/11/14 02:59:36;;;;;;;38.88;23.20;;;6.40;80.30;;;;;;5018628;28;20295;-72
2022/11/14 03:02:22;;;;;;;32.25;19.80;;;6.30;80.20;;;;;;5022648;28;20220;-69
2022/11/14 03:05:09;;;;;;;34.03;19.30;;;6.20;80.20;;;;;;5020946;28;20925;-72
2022/11/14 03:07:56;;;;;;;27.42;16.95;;;6.10;80.30;;;;;;5022595;28;20745;-71
2022/11/14 03:10:44;;;;;;;25.30;17.30;;;6.00;80.20;;;;;;5022716;28;20709;-71
2022/11/14 03:13:31;;;;;;;33.90;19.05;;;5.90;80.50;;;;;;5026465;28;20215;-71
2022/11/14 03:16:18;;;;;;;39.17;21.52;;;5.80;80.60;;;;;;5021448;28;20268;-71
2022/11/14 03:19:04;;;;;;;46.35;25.23;;;5.80;80.70;;;;;;5020884;28;20287;-71
2022/11/14 03:21:51;;;;;;;34.88;20.40;;;5.80;80.70;;;;;;5019168;28;20216;-71
2022/11/14 03:24:37;;;;;;;28.92;17.30;;;5.70;80.70;;;;;;5024159;28;20215;-72
2022/11/14 03:27:25;;;;;;;33.20;19.20;;;5.70;80.60;;;;;;5026362;28;20231;-71
2022/11/14 03:30:12;;;;;;;28.48;18.50;;;5.70;80.70;;;;;;5017906;28;20326;-71
2022/11/14 03:32:59;;;;;;;30.98;16.95;;;5.70;80.90;;;;;;5022472;28;20215;-71
2022/11/14 03:35:45;;;;;;;28.23;18.00;;;5.70;80.80;;;;;;5021938;28;20722;-71
2022/11/14 03:38:32;;;;;;;33.15;17.25;;;5.70;81.00;;;;;;5023081;28;20327;-71
2022/11/14 03:41:19;;;;;;;41.30;22.25;;;5.70;81.10;;;;;;5022141;28;20873;-71
2022/11/14 03:44:06;;;;;;;39.10;22.67;;;5.80;81.10;;;;;;5022017;28;20314;-71
2022/11/14 03:46:53;;;;;;;28.63;17.50;;;5.80;81.20;;;;;;5021893;28;20232;-71
2022/11/14 03:49:40;;;;;;;25.52;16.23;;;5.90;81.30;;;;;;5021057;28;20347;-71
2022/11/14 03:52:27;;;;;;;52.25;27.45;;;6.00;81.30;;;;;;5021747;28;20209;-71
2022/11/14 03:55:13;;;;;;;39.17;22.33;;;6.10;81.10;;;;;;5018935;28;20229;-72
2022/11/14 03:58:00;;;;;;;56.67;27.85;;;6.10;81.00;;;;;;5018405;28;20947;-72
2022/11/14 04:00:48;;;;;;;48.30;27.45;;;6.10;80.80;;;;;;5017510;28;20248;-71
2022/11/14 04:03:35;;;;;;;37.30;22.50;;;6.10;80.80;;;;;;5021173;28;20293;-71
2022/11/14 04:06:21;;;;;;;31.52;19.73;;;6.10;81.00;;;;;;5017825;28;20227;-71
2022/11/14 04:09:10;;;;;;;32.65;19.23;;;6.20;80.90;;;;;;5020577;28;20264;-71
2022/11/14 04:11:57;;;;;;;24.60;16.35;;;6.20;80.80;;;;;;5025499;28;20217;-71
2022/11/14 04:14:43;;;;;;;24.33;16.65;;;6.20;80.80;;;;;;5027018;28;20208;-71
2022/11/14 04:17:31;;;;;;;33.75;18.95;;;6.20;80.80;;;;;;5026141;28;20307;-71
2022/11/14 04:20:25;;;;;;;38.90;21.10;;;6.20;80.90;;;;;;5025285;28;20300;-71
2022/11/14 04:23:12;;;;;;;41.13;23.52;;;6.30;81.00;;;;;;5022351;28;20224;-71
2022/11/14 04:25:58;;;;;;;48.35;26.02;;;6.30;80.80;;;;;;5024856;28;20212;-72
2022/11/14 04:28:45;;;;;;;46.50;25.23;;;6.30;80.80;;;;;;5023352;28;20205;-71
2022/11/14 04:31:31;;;;;;;44.92;23.50;;;6.40;81.00;;;;;;5025960;28;20878;-71
2022/11/14 04:34:19;;;;;;;45.85;25.05;;;6.40;81.10;;;;;;5025054;28;20217;-71
2022/11/14 04:37:05;;;;;;;41.05;23.45;;;6.40;81.10;;;;;;5023794;28;20332;-71
2022/11/14 04:39:52;;;;;;;43.65;24.85;;;6.40;81.20;;;;;;5027654;28;20372;-71
2022/11/14 04:42:38;;;;;;;43.25;25.90;;;6.50;81.40;;;;;;5027834;28;20227;-71
2022/11/14 04:45:24;;;;;;;43.90;25.25;;;6.50;81.40;;;;;;5026383;28;20902;-72
2022/11/14 04:48:12;;;;;;;65.68;35.00;;;6.50;81.50;;;;;;5026473;28;20335;-71
2022/11/14 04:51:00;;;;;;;52.33;30.20;;;6.60;81.60;;;;;;5026103;28;20228;-72
2022/11/14 04:53:46;;;;;;;48.42;27.60;;;6.60;81.60;;;;;;5024291;28;20216;-72
2022/11/14 04:56:33;;;;;;;52.72;29.30;;;6.60;81.70;;;;;;5026763;28;20312;-71
2022/11/14 04:59:19;;;;;;;57.83;33.30;;;6.70;81.80;;;;;;5026266;28;20259;-71
2022/11/14 05:02:06;;;;;;;51.45;25.17;;;6.70;81.70;;;;;;5029052;28;20317;-71
2022/11/14 05:04:53;;;;;;;48.78;28.58;;;6.70;81.70;;;;;;5022448;28;20220;-72
2022/11/14 05:07:41;;;;;;;58.03;35.40;;;6.70;81.80;;;;;;5025292;28;20255;-71
2022/11/14 05:10:27;;;;;;;46.78;27.60;;;6.70;81.90;;;;;;5024976;28;20215;-71
2022/11/14 05:13:14;;;;;;;43.88;27.55;;;6.70;82.10;;;;;;5023733;28;20329;-72
2022/11/14 05:16:01;;;;;;;49.65;27.33;;;6.70;82.00;;;;;;5022346;28;20247;-71
2022/11/14 05:18:48;;;;;;;47.75;28.27;;;6.70;81.90;;;;;;5023742;28;20404;-72
2022/11/14 05:21:34;;;;;;;47.70;26.45;;;6.70;82.10;;;;;;5023154;28;20241;-72
2022/11/14 05:24:22;;;;;;;48.40;26.52;;;6.70;82.20;;;;;;5025786;28;20371;-72
2022/11/14 05:27:08;;;;;;;47.78;26.10;;;6.70;82.20;;;;;;5025113;28;20228;-71
2022/11/14 05:29:55;;;;;;;52.33;28.05;;;6.70;82.40;;;;;;5023890;28;20220;-72
2022/11/14 05:32:41;;;;;;;50.50;28.38;;;6.70;82.40;;;;;;5026442;28;20212;-72
2022/11/14 05:35:28;;;;;;;51.38;30.58;;;6.80;82.50;;;;;;5026060;28;20689;-70
2022/11/14 05:38:14;;;;;;;52.10;30.38;;;6.80;82.60;;;;;;5027206;28;20227;-72
2022/11/14 05:41:07;;;;;;;49.97;28.83;;;6.90;82.70;;;;;;5022455;28;20343;-72
2022/11/14 05:43:54;;;;;;;48.53;26.85;;;6.90;82.70;;;;;;5022969;28;20227;-72
2022/11/14 05:46:40;;;;;;;41.28;23.83;;;6.90;82.70;;;;;;5026247;28;20237;-71
2022/11/14 05:49:27;;;;;;;46.70;24.27;;;6.90;82.80;;;;;;5033227;28;20561;-71
2022/11/14 05:52:14;;;;;;;42.22;23.40;;;7.00;83.00;;;;;;5023113;28;20216;-72
2022/11/14 05:55:00;;;;;;;48.78;26.60;;;7.10;82.90;;;;;;5022072;28;20224;-71
2022/11/14 05:57:48;;;;;;;50.03;25.63;;;7.10;82.90;;;;;;5023083;28;20834;-72
2022/11/14 06:00:35;;;;;;;46.30;25.02;;;7.20;82.90;;;;;;5022950;28;20240;-71
2022/11/14 06:03:35;;;;;;;46.17;25.65;;;7.20;82.90;;;;;;5020070;28;20228;-71
2022/11/14 06:06:22;;;;;;;50.60;27.15;;;7.30;83.00;;;;;;5022239;28;20212;-72
2022/11/14 06:09:09;;;;;;;43.33;24.88;;;7.30;82.80;;;;;;5026481;28;20859;-71
2022/11/14 06:11:55;;;;;;;46.17;25.25;;;7.30;82.90;;;;;;5028845;28;20224;-71
2022/11/14 06:14:43;;;;;;;41.42;23.85;;;7.40;83.00;;;;;;5025804;28;20213;-70
2022/11/14 06:17:29;;;;;;;50.00;26.15;;;7.40;82.90;;;;;;5026215;28;20601;-73
2022/11/14 06:20:16;;;;;;;49.95;28.35;;;7.40;82.80;;;;;;5024859;28;20411;-72
2022/11/14 06:23:02;;;;;;;48.33;29.00;;;7.40;82.60;;;;;;5027745;28;20255;-71
2022/11/14 06:25:49;;;;;;;53.20;28.48;;;7.30;82.70;;;;;;5026917;28;20248;-71
2022/11/14 06:28:35;;;;;;;54.75;27.30;;;7.30;82.80;;;;;;5029477;28;20347;-71
2022/11/14 06:31:24;;;;;;;50.63;26.15;;;7.20;82.80;;;;;;5027359;28;20332;-71
2022/11/14 06:34:11;;;;;;;42.10;25.27;;;7.20;82.90;;;;;;5026251;28;20278;-72
2022/11/14 06:36:58;;;;;;;48.15;28.08;;;7.20;83.10;;;;;;5028608;28;20266;-71
2022/11/14 06:39:44;;;;;;;47.63;27.08;;;7.30;83.10;;;;;;5029216;28;20219;-72
2022/11/14 06:42:31;;;;;;;40.97;25.05;;;7.30;83.10;;;;;;5026999;28;20224;-71
2022/11/14 06:45:17;;;;;;;44.72;25.33;;;7.30;83.10;;;;;;5023332;28;20224;-71
2022/11/14 06:48:06;;;;;;;50.65;26.17;;;7.30;83.10;;;;;;5027225;28;20232;-71
2022/11/14 06:50:53;;;;;;;43.45;24.90;;;7.30;83.10;;;;;;5027548;28;20211;-71
2022/11/14 06:53:40;;;;;;;43.10;25.65;;;7.30;83.20;;;;;;5027481;28;20255;-72
2022/11/14 06:56:27;;;;;;;47.53;28.70;;;7.30;83.20;;;;;;5025458;28;20246;-70
2022/11/14 06:59:13;;;;;;;50.72;29.17;;;7.30;83.30;;;;;;5020557;28;20662;-72
2022/11/14 07:02:00;;;;;;;41.28;25.30;;;7.30;83.30;;;;;;5022871;28;20295;-72
2022/11/14 07:04:48;;;;;;;47.70;25.65;;;7.30;83.30;;;;;;5020587;28;20221;-71
2022/11/14 07:07:34;;;;;;;40.50;23.65;;;7.30;83.30;;;;;;5020418;28;20746;-71
2022/11/14 07:10:21;;;;;;;38.85;23.88;;;7.30;83.30;;;;;;5027157;28;20225;-71
2022/11/14 07:13:10;;;;;;;42.03;24.05;;;7.30;83.50;;;;;;5018874;28;20217;-70
2022/11/14 07:15:57;;;;;;;41.75;25.95;;;7.30;83.40;;;;;;5022941;28;20295;-70
2022/11/14 07:18:44;;;;;;;47.28;25.52;;;7.30;83.50;;;;;;5022302;28;20232;-71
2022/11/14 07:21:33;;;;;;;43.65;25.90;;;7.30;83.50;;;;;;5019912;28;20217;-70
2022/11/14 07:24:20;;;;;;;43.53;25.35;;;7.30;83.60;;;;;;5022366;28;20213;-72
2022/11/14 07:27:09;;;;;;;35.92;21.92;;;7.30;83.70;;;;;;5023216;28;20290;-71
2022/11/14 07:29:56;;;;;;;41.30;24.92;;;7.40;83.80;;;;;;5027455;28;20224;-71
2022/11/14 07:32:42;;;;;;;38.50;21.70;;;7.30;83.60;;;;;;5026597;28;20243;-71
2022/11/14 07:35:29;;;;;;;43.55;24.75;;;7.30;83.60;;;;;;5024399;28;20220;-71
2022/11/14 07:38:17;;;;;;;36.92;22.65;;;7.30;83.70;;;;;;5022522;28;20302;-71
2022/11/14 07:41:06;;;;;;;42.17;25.25;;;7.30;83.80;;;;;;5020907;28;20224;-71
2022/11/14 07:43:52;;;;;;;37.65;22.20;;;7.30;83.80;;;;;;5017409;28;20224;-71
2022/11/14 07:46:39;;;;;;;34.42;22.70;;;7.30;83.90;;;;;;5024894;28;20240;-71
2022/11/14 07:49:25;;;;;;;38.17;21.95;;;7.30;83.90;;;;;;5031163;28;20216;-71
2022/11/14 07:52:12;;;;;;;37.67;23.95;;;7.30;84.00;;;;;;5019027;28;20689;-71
2022/11/14 07:55:00;;;;;;;39.08;25.13;;;7.40;84.00;;;;;;5019384;28;20224;-71
2022/11/14 07:57:47;;;;;;;38.03;23.58;;;7.40;84.10;;;;;;5023033;28;20232;-71
2022/11/14 08:00:35;;;;;;;34.50;22.70;;;7.40;84.30;;;;;;5023295;28;20228;-71
2022/11/14 08:03:22;;;;;;;34.40;21.38;;;7.40;84.10;;;;;;5023742;28;20224;-71
2022/11/14 08:06:10;;;;;;;34.75;22.75;;;7.40;84.10;;;;;;5020820;28;20769;-71
2022/11/14 08:08:56;;;;;;;32.50;18.80;;;7.40;84.10;;;;;;5024310;28;20877;-71
2022/11/14 08:11:47;;;;;;;33.42;20.67;;;7.50;84.20;;;;;;5027570;28;20231;-71
2022/11/14 08:14:34;;;;;;;36.40;22.58;;;7.50;84.30;;;;;;5026210;28;20219;-71
2022/11/14 08:17:21;;;;;;;35.70;19.88;;;7.60;84.40;;;;;;5024723;28;20720;-72
2022/11/14 08:20:09;;;;;;;35.15;21.20;;;7.60;84.10;;;;;;5022956;28;20212;-71
2022/11/14 08:23:02;;;;;;;31.92;20.48;;;7.60;84.10;;;;;;5018429;28;20208;-71
2022/11/14 08:25:48;;;;;;;36.83;24.23;;;7.60;84.20;;;;;;5025262;28;20801;-71
2022/11/14 08:28:36;;;;;;;31.30;18.30;;;7.60;84.20;;;;;;5026129;28;20356;-72
2022/11/14 08:31:23;;;;;;;29.95;18.70;;;7.60;84.20;;;;;;5020324;28;20286;-71
2022/11/14 08:34:10;;;;;;;29.17;17.08;;;7.60;84.30;;;;;;5022809;28;20649;-71
2022/11/14 08:36:57;;;;;;;28.02;17.30;;;7.60;84.40;;;;;;5020599;28;20232;-72
2022/11/14 08:39:43;;;;;;;35.15;21.30;;;7.70;84.40;;;;;;5025077;28;20913;-71
2022/11/14 08:42:30;;;;;;;32.00;18.77;;;7.70;84.40;;;;;;5024929;28;20267;-71
2022/11/14 08:45:17;;;;;;;29.33;17.88;;;7.70;84.40;;;;;;5019806;28;20207;-70
2022/11/14 08:48:04;;;;;;;50.20;32.00;;;7.80;84.40;;;;;;5022736;28;20781;-72
2022/11/14 08:50:51;;;;;;;39.92;24.27;;;7.80;84.50;;;;;;5021755;28;20236;-71
2022/11/14 08:53:37;;;;;;;30.65;18.58;;;7.80;84.40;;;;;;5025310;28;20676;-70
2022/11/14 08:56:24;;;;;;;29.40;17.65;;;7.90;84.50;;;;;;5026434;28;20299;-71
2022/11/14 08:59:10;;;;;;;49.33;29.23;;;7.90;84.40;;;;;;5025862;28;20263;-71
2022/11/14 09:01:58;;;;;;;40.88;25.75;;;8.00;84.40;;;;;;5027087;28;20580;-70
2022/11/14 09:04:45;;;;;;;33.35;21.70;;;8.00;84.40;;;;;;5023782;28;20212;-71
2022/11/14 09:07:32;;;;;;;30.88;20.80;;;8.00;84.40;;;;;;5027701;28;20606;-71
2022/11/14 09:10:19;;;;;;;37.80;22.50;;;8.00;84.40;;;;;;5016514;28;20213;-70
2022/11/14 09:13:06;;;;;;;51.83;29.70;;;8.10;84.40;;;;;;5025187;28;20689;-70
2022/11/14 09:15:52;;;;;;;41.85;25.25;;;8.10;84.30;;;;;;5026196;28;20212;-70
2022/11/14 09:18:40;;;;;;;38.72;22.70;;;8.10;84.30;;;;;;5028234;28;20256;-71
2022/11/14 09:21:27;;;;;;;30.00;19.02;;;8.10;84.30;;;;;;5028405;28;20705;-71
2022/11/14 09:24:13;;;;;;;29.93;18.20;;;8.10;84.30;;;;;;5024009;28;20220;-71
2022/11/14 09:27:00;;;;;;;41.60;26.13;;;8.10;84.30;;;;;;5023951;28;20549;-72
2022/11/14 09:29:46;;;;;;;31.27;19.48;;;8.10;84.30;;;;;;5024905;28;20459;-71
2022/11/14 09:32:33;;;;;;;31.45;18.50;;;8.00;84.30;;;;;;5026157;28;20340;-72
2022/11/14 09:35:21;;;;;;;32.58;20.77;;;8.00;84.40;;;;;;5031077;28;20294;-71
2022/11/14 09:38:10;;;;;;;30.30;19.48;;;8.00;84.50;;;;;;5025542;28;20236;-71
2022/11/14 09:41:05;;;;;;;28.13;17.75;;;8.00;84.70;;;;;;5028525;28;20290;-71
2022/11/14 09:44:13;;;;;;;29.63;18.58;;;8.10;84.80;;;;;;5026602;28;20678;-71
2022/11/14 09:47:11;;;;;;;28.03;17.20;;;8.10;84.90;;;;;;5026451;28;20325;-71
2022/11/14 09:50:11;;;;;;;43.88;25.38;;;8.10;84.90;;;;;;5021935;28;20506;-70
2022/11/14 09:53:03;;;;;;;36.78;19.35;;;8.20;85.00;;;;;;5023866;28;20219;-70
2022/11/14 09:55:49;;;;;;;155.45;69.85;;;8.30;84.90;;;;;;5021212;28;20299;-70
2022/11/14 09:58:36;;;;;;;29.50;19.20;;;8.30;84.80;;;;;;5027670;28;20228;-70
2022/11/14 10:01:32;;;;;;;28.30;17.27;;;8.40;84.60;;;;;;5025816;28;20757;-70
2022/11/14 10:04:26;;;;;;;26.90;17.73;;;8.40;84.60;;;;;;5021965;28;20263;-71
2022/11/14 10:07:25;;;;;;;31.17;18.48;;;8.40;84.60;;;;;;5025319;28;20475;-71
2022/11/14 10:10:23;;;;;;;31.13;19.60;;;8.40;84.70;;;;;;5023179;28;20213;-70
2022/11/14 10:13:24;;;;;;;28.75;19.42;;;8.40;84.90;;;;;;5023296;28;20310;-72
2022/11/14 10:16:18;;;;;;;29.45;17.42;;;8.50;84.70;;;;;;5020665;28;20219;-71
2022/11/14 10:19:15;;;;;;;43.47;23.80;;;8.50;84.50;;;;;;5024327;28;20582;-71
2022/11/14 10:22:28;;;;;;;40.13;24.37;;;8.50;84.70;;;;;;5028691;28;20541;-71
2022/11/14 10:25:23;;;;;;;31.00;21.45;;;8.60;84.80;;;;;;5018455;28;20499;-71
2022/11/14 10:28:29;;;;;;;31.45;19.83;;;8.60;84.70;;;;;;5022817;28;20238;-71
2022/11/14 10:31:25;;;;;;;32.10;19.20;;;8.60;84.80;;;;;;5026857;28;20221;-72
2022/11/14 10:34:17;;;;;;;30.20;18.85;;;8.60;84.80;;;;;;5027866;28;20478;-71
2022/11/14 10:37:13;;;;;;;29.77;18.20;;;8.70;84.90;;;;;;5026176;28;20236;-72
2022/11/14 10:40:13;;;;;;;28.75;16.60;;;8.70;85.00;;;;;;5024822;28;20487;-72
2022/11/14 10:43:11;;;;;;;28.23;16.83;;;8.80;85.00;;;;;;5020908;28;20227;-71
2022/11/14 10:46:04;;;;;;;28.40;16.50;;;8.80;85.00;;;;;;5025733;28;20979;-71
2022/11/14 10:48:51;;;;;;;26.70;16.50;;;8.80;85.00;;;;;;5026262;28;20921;-71
2022/11/14 10:51:50;;;;;;;28.67;16.70;;;8.80;85.00;;;;;;5023340;28;20689;-71
2022/11/14 10:54:40;;;;;;;26.25;16.23;;;8.90;84.90;;;;;;5023318;28;21253;-71
2022/11/14 10:57:28;;;;;;;26.37;16.30;;;8.90;85.00;;;;;;5023889;28;20326;-70
2022/11/14 11:00:21;;;;;;;26.33;16.90;;;8.90;85.00;;;;;;5023883;28;21171;-70
2022/11/14 11:03:08;;;;;;;25.50;16.20;;;8.90;85.10;;;;;;5023296;28;20220;-72
2022/11/14 11:05:56;;;;;;;25.77;15.47;;;9.00;85.10;;;;;;5025697;28;20479;-72
2022/11/14 11:11:54;;;;;;;22.80;14.77;;;9.00;85.00;;;;;;5013169;28;21362;-71
2022/11/14 11:14:41;;;;;;;20.13;13.97;;;9.10;85.10;;;;;;5025223;28;20983;-71
2022/11/14 11:17:29;;;;;;;25.17;15.57;;;9.10;85.10;;;;;;5024914;28;20471;-70
2022/11/14 11:20:28;;;;;;;23.83;14.70;;;9.20;85.20;;;;;;5024632;28;20628;-71
2022/11/14 11:23:20;;;;;;;23.37;15.67;;;9.30;85.20;;;;;;5023570;28;20443;-71
2022/11/14 11:26:09;;;;;;;26.53;16.97;;;9.30;85.20;;;;;;5025405;28;20503;-71
2022/11/14 11:29:08;;;;;;;23.70;15.03;;;9.40;85.30;;;;;;5024328;28;20979;-71
2022/11/14 11:31:56;;;;;;;22.00;14.93;;;9.50;85.30;;;;;;5022409;28;20991;-72
2022/11/14 11:34:45;;;;;;;22.30;14.30;;;9.50;85.30;;;;;;5017789;28;20547;-71
2022/11/14 11:37:38;;;;;;;20.77;14.10;;;9.60;85.30;;;;;;5023049;28;20541;-71
2022/11/14 11:40:27;;;;;;;20.83;13.30;;;9.60;85.20;;;;;;5020872;28;20838;-71
2022/11/14 11:43:18;;;;;;;33.63;18.23;;;9.70;85.10;;;;;;5026551;28;20475;-71
2022/11/14 11:46:32;;;;;;;25.27;17.30;;;9.70;85.00;;;;;;5016886;28;21122;-72
2022/11/14 11:49:24;;;;;;;23.27;15.07;;;9.80;85.10;;;;;;5015683;28;20463;-72
2022/11/14 11:52:19;;;;;;;30.57;18.40;;;9.80;85.00;;;;;;5020508;28;20455;-71
2022/11/14 11:55:17;;;;;;;31.27;18.80;;;9.90;85.10;;;;;;5022712;28;20996;-71
2022/11/14 11:58:10;;;;;;;23.23;14.80;;;9.90;85.00;;;;;;5021622;28;20488;-71
2022/11/14 12:00:57;;;;;;;29.70;21.50;;;10.00;84.90;;;;;;5023472;28;20454;-71
2022/11/14 12:03:48;;;;;;;22.20;15.47;;;10.00;84.80;;;;;;5024095;28;20498;-71
2022/11/14 12:06:44;;;;;;;27.33;18.50;;;10.00;84.80;;;;;;5023868;28;20463;-72
2022/11/14 12:09:36;;;;;;;28.53;19.87;;;10.00;84.80;;;;;;5023959;28;20454;-71
2022/11/14 12:13:13;;;;;;;34.43;25.83;;;10.00;84.80;;;;;;5025776;28;20462;-72
2022/11/14 12:16:22;;;;;;;30.33;20.43;;;10.00;84.90;;;;;;5018943;28;20458;-71
2022/11/14 12:19:39;;;;;;;26.73;18.53;;;10.10;84.80;;;;;;5021965;28;20533;-71
2022/11/14 12:22:44;;;;;;;27.00;17.93;;;10.10;84.70;;;;;;5025765;28;20463;-71
2022/11/14 12:26:09;;;;;;;25.97;17.10;;;10.10;84.70;;;;;;5021218;28;20463;-71
2022/11/14 12:29:14;;;;;;;23.10;15.30;;;10.20;84.60;;;;;;5025815;28;20462;-71
2022/11/14 12:32:06;;;;;;;18.97;14.60;;;10.20;84.50;;;;;;5025082;28;20560;-71
2022/11/14 12:34:53;;;;;;;24.10;15.77;;;10.20;84.60;;;;;;5028163;28;20463;-71
2022/11/14 12:37:44;;;;;;;29.27;19.10;;;10.30;84.50;;;;;;5028888;28;20479;-69
2022/11/14 12:40:35;;;;;;;29.00;17.90;;;10.30;84.50;;;;;;5023842;28;20874;-71
2022/11/14 12:43:33;;;;;;;24.77;16.73;;;10.30;84.40;;;;;;5023087;28;20467;-72
2022/11/14 12:46:23;;;;;;;25.23;17.10;;;10.30;84.30;;;;;;5026530;28;21014;-71
2022/11/14 12:49:37;;;;;;;23.40;16.37;;;10.20;84.40;;;;;;5027571;28;20447;-74
2022/11/14 12:52:43;;;;;;;24.03;15.10;;;10.20;84.40;;;;;;5027912;28;20803;-69
2022/11/14 12:55:53;;;;;;;21.70;14.37;;;10.30;84.50;;;;;;5026889;28;20465;-70
2022/11/14 12:59:15;;;;;;;22.90;15.47;;;10.30;84.50;;;;;;5027135;28;20545;-69
2022/11/14 13:02:40;;;;;;;25.27;14.80;;;10.30;84.50;;;;;;5031467;28;20600;-71
2022/11/14 13:05:45;;;;;;;24.87;15.97;;;10.30;84.50;;;;;;5004909;28;20462;-70
2022/11/14 13:08:59;;;;;;;19.70;14.47;;;10.40;84.50;;;;;;5028863;28;20963;-70
2022/11/14 13:25:05;;;;;;;25.40;15.27;;;10.50;84.60;;;;;;5026069;28;20578;-71
2022/11/14 13:27:54;;;;;;;24.00;15.33;;;10.50;84.70;;;;;;5026558;28;21083;-72
2022/11/14 13:31:19;;;;;;;27.03;16.70;;;10.60;84.80;;;;;;5029672;28;20466;-71
2022/11/14 13:34:33;;;;;;;23.10;15.83;;;10.60;84.80;;;;;;5028428;28;20458;-70
2022/11/14 13:37:38;;;;;;;23.07;15.00;;;10.70;84.70;;;;;;5024423;28;20594;-71
2022/11/14 13:40:32;;;;;;;24.20;14.47;;;10.70;84.60;;;;;;5023869;28;20627;-71
2022/11/14 13:43:29;;;;;;;20.73;13.20;;;10.70;84.50;;;;;;5028670;28;20549;-70
2022/11/14 13:46:32;;;;;;;22.03;14.63;;;10.70;84.60;;;;;;5023041;28;20618;-69
2022/11/14 13:49:37;;;;;;;22.13;14.93;;;10.80;84.50;;;;;;5026170;28;20996;-71
2022/11/14 13:52:31;;;;;;;25.23;16.67;;;10.70;84.60;;;;;;5026218;28;21209;-70
2022/11/14 13:55:22;;;;;;;22.70;15.77;;;10.70;84.60;;;;;;5027591;28;20452;-70
2022/11/14 13:58:21;;;;;;;32.77;19.60;;;10.70;84.60;;;;;;5025221;28;21000;-71
2022/11/14 14:01:19;;;;;;;26.37;18.60;;;10.70;84.60;;;;;;5025894;28;20482;-72
2022/11/14 14:04:26;;;;;;;31.83;20.00;;;10.80;84.60;;;;;;5026658;28;20455;-70
2022/11/14 14:07:23;;;;;;;38.90;22.90;;;10.70;84.70;;;;;;5024965;28;20454;-71
2022/11/14 14:10:21;;;;;;;35.13;22.13;;;10.80;84.70;;;;;;5026824;28;20494;-71
2022/11/14 14:13:22;;;;;;;34.27;21.40;;;10.80;84.70;;;;;;5025885;28;20451;-70
2022/11/14 14:16:16;;;;;;;35.73;22.73;;;10.80;84.70;;;;;;5025479;28;20505;-70
2022/11/14 14:19:12;;;;;;;29.43;19.10;;;10.80;84.60;;;;;;5019601;28;20600;-71
2022/11/14 14:22:08;;;;;;;34.77;20.10;;;10.80;84.50;;;;;;5020922;28;20866;-69
2022/11/14 14:25:01;;;;;;;28.23;17.60;;;10.80;84.50;;;;;;5018799;28;20470;-71
2022/11/14 14:27:57;;;;;;;24.33;15.73;;;10.90;84.50;;;;;;5019252;28;20490;-71
2022/11/14 14:31:03;;;;;;;21.73;15.07;;;10.90;84.50;;;;;;5025843;28;20454;-72
2022/11/14 14:33:51;;;;;;;24.07;16.73;;;10.90;84.50;;;;;;5012067;28;20486;-70
2022/11/14 14:36:49;;;;;;;32.07;22.03;;;10.90;84.50;;;;;;4973133;28;20682;-71
2022/11/14 14:39:37;;;;;;;33.73;22.60;;;10.90;84.50;;;;;;4979432;28;21202;-68
2022/11/14 14:42:25;;;;;;;39.57;25.97;;;10.90;84.50;;;;;;5021354;28;20459;-70
2022/11/14 14:45:21;;;;;;;35.20;23.83;;;10.90;84.40;;;;;;5020647;28;20971;-71
2022/11/14 14:48:13;;;;;;;36.37;25.13;;;10.90;84.50;;;;;;5018253;28;20533;-69
2022/11/14 14:51:01;;;;;;;48.97;29.70;;;10.90;84.50;;;;;;5018768;28;20590;-69